< < Back
Terminal Aerodrome Forecast


Current Version              Previous Versions:   1  2  3  4  5  6  7  8  9  

Terminal Aerodrome Forecast

516
FTUS44 KMRX 262336
TAFTYS
TAF
KTYS 262336Z 2700/2724 20010G18KT P6SM VCTS SCT050CB BKN250
      TEMPO 2700/2702 4SM -SHRA BR FEW030 BKN050
     FM270200 23009KT P6SM VCSH SCT025 BKN070
     FM270800 23005KT 6SM BR BKN025
     FM271400 23006KT P6SM BKN040
     FM271800 23007KT P6SM BKN250=



Latest METAR

008
SAUS80 KWBC 271100 RRA
MTRTYS
METAR KTYS 271053Z 20006KT 10SM OVC032 19/17 A3022 RMK AO2 SLP225
T01890167


USA.gov is the U.S. government's official web portal to all federal, state and local government web resources and services.